Muskegon, Michigan
Current Conditions -  °F | °C
As of 4:55 PM on Tuesday 25 Nov 2014 (Local Time) from KMKG Reporting Station
Overcast Overcast  
Wind Chill: 22°   Ceiling: 2300
Heat Index: 30°   Visibility: 10mi
Dew Point: 21°   Wind: 8mph
Humidity: 69%   Direction: 280°W
Pressure: 30.11"   Gusts: NA
Location:  43.23°N, 86.24°W
Report Text: KMKG 252155Z 28007KT 10SM OVC023 M01/M06 A3011 RMK AO2 SLP202 T10111061
Loading
Personal Weather Stations






























Interactive Weather Map New forecast layout! Learn more

10-Day Weather Forecast

Advertisements
Track Severe Weather on mobile